sensor_id;sensor_type;location;lat;lon;timestamp;noise_LAeq;noise_LA_min;noise_LA_max;noise_LA01;noise_LA95
37279;Laerm;7458;49.002;8.472;2023-01-30T00:01:44;64.73;41.30;76.00;;
37279;Laerm;7458;49.002;8.472;2023-01-30T00:04:13;64.36;41.68;76.09;;
37279;Laerm;7458;49.002;8.472;2023-01-30T00:06:41;64.79;41.82;75.91;;
37279;Laerm;7458;49.002;8.472;2023-01-30T00:09:11;55.79;41.75;76.08;;
37279;Laerm;7458;49.002;8.472;2023-01-30T00:11:38;64.02;41.82;75.39;;
37279;Laerm;7458;49.002;8.472;2023-01-30T00:14:03;64.51;42.29;75.70;;
37279;Laerm;7458;49.002;8.472;2023-01-30T00:16:29;64.63;41.53;75.95;;
37279;Laerm;7458;49.002;8.472;2023-01-30T00:18:55;64.98;41.75;75.66;;
37279;Laerm;7458;49.002;8.472;2023-01-30T00:21:22;62.31;41.68;76.07;;
37279;Laerm;7458;49.002;8.472;2023-01-30T00:23:48;64.31;42.41;76.40;;
37279;Laerm;7458;49.002;8.472;2023-01-30T00:26:13;64.70;42.03;75.80;;
37279;Laerm;7458;49.002;8.472;2023-01-30T00:28:39;62.58;41.14;77.00;;
37279;Laerm;7458;49.002;8.472;2023-01-30T00:31:06;65.12;41.68;77.34;;
37279;Laerm;7458;49.002;8.472;2023-01-30T00:33:32;62.13;41.89;76.45;;
37279;Laerm;7458;49.002;8.472;2023-01-30T00:36:01;64.15;42.47;76.22;;
37279;Laerm;7458;49.002;8.472;2023-01-30T00:38:27;64.78;42.29;75.77;;
37279;Laerm;7458;49.002;8.472;2023-01-30T00:40:53;64.46;42.76;76.08;;
37279;Laerm;7458;49.002;8.472;2023-01-30T00:43:20;64.70;41.38;75.84;;
37279;Laerm;7458;49.002;8.472;2023-01-30T00:46:24;62.38;41.06;76.28;;
37279;Laerm;7458;49.002;8.472;2023-01-30T00:49:11;64.30;41.38;76.28;;
37279;Laerm;7458;49.002;8.472;2023-01-30T00:51:36;63.35;41.89;75.87;;
37279;Laerm;7458;49.002;8.472;2023-01-30T00:54:02;63.27;40.62;76.36;;
37279;Laerm;7458;49.002;8.472;2023-01-30T00:56:28;63.67;40.53;75.92;;
37279;Laerm;7458;49.002;8.472;2023-01-30T00:58:54;63.16;41.30;76.64;;
37279;Laerm;7458;49.002;8.472;2023-01-30T01:01:19;64.97;41.89;75.82;;
37279;Laerm;7458;49.002;8.472;2023-01-30T01:03:45;64.64;42.65;76.14;;
37279;Laerm;7458;49.002;8.472;2023-01-30T01:06:11;64.71;40.33;75.96;;
37279;Laerm;7458;49.002;8.472;2023-01-30T01:08:37;65.03;40.89;75.87;;
37279;Laerm;7458;49.002;8.472;2023-01-30T01:11:03;63.26;42.41;76.12;;
37279;Laerm;7458;49.002;8.472;2023-01-30T01:13:29;64.74;41.38;76.23;;
37279;Laerm;7458;49.002;8.472;2023-01-30T01:15:54;64.08;43.34;75.51;;
37279;Laerm;7458;49.002;8.472;2023-01-30T01:18:20;64.91;43.44;75.98;;
37279;Laerm;7458;49.002;8.472;2023-01-30T01:20:46;65.08;42.65;75.83;;
37279;Laerm;7458;49.002;8.472;2023-01-30T01:23:12;63.38;41.46;76.13;;
37279;Laerm;7458;49.002;8.472;2023-01-30T01:25:38;64.97;41.14;75.75;;
37279;Laerm;7458;49.002;8.472;2023-01-30T01:28:04;64.50;41.96;75.75;;
37279;Laerm;7458;49.002;8.472;2023-01-30T01:30:29;64.81;42.47;75.71;;
37279;Laerm;7458;49.002;8.472;2023-01-30T01:32:56;63.22;43.09;76.24;;
37279;Laerm;7458;49.002;8.472;2023-01-30T01:35:22;65.16;42.93;75.79;;
37279;Laerm;7458;49.002;8.472;2023-01-30T01:37:52;64.13;41.89;76.13;;
37279;Laerm;7458;49.002;8.472;2023-01-30T01:40:19;63.89;42.00;76.25;;
37279;Laerm;7458;49.002;8.472;2023-01-30T01:43:15;50.35;41.88;79.02;;
37279;Laerm;7458;49.002;8.472;2023-01-30T01:45:42;65.24;42.16;75.77;;
37279;Laerm;7458;49.002;8.472;2023-01-30T01:48:31;64.30;40.33;76.05;;
37279;Laerm;7458;49.002;8.472;2023-01-30T01:51:09;64.74;41.82;80.60;;
37279;Laerm;7458;49.002;8.472;2023-01-30T01:53:52;63.20;41.14;76.05;;
37279;Laerm;7458;49.002;8.472;2023-01-30T01:56:20;64.36;41.96;76.02;;
37279;Laerm;7458;49.002;8.472;2023-01-30T01:59:00;64.68;41.61;75.73;;
37279;Laerm;7458;49.002;8.472;2023-01-30T02:01:30;65.09;41.68;76.21;;
37279;Laerm;7458;49.002;8.472;2023-01-30T02:04:03;63.16;41.46;76.10;;
37279;Laerm;7458;49.002;8.472;2023-01-30T02:06:31;65.08;41.89;75.80;;
37279;Laerm;7458;49.002;8.472;2023-01-30T02:09:02;63.13;41.89;75.72;;
37279;Laerm;7458;49.002;8.472;2023-01-30T02:11:46;64.50;40.71;75.56;;
37279;Laerm;7458;49.002;8.472;2023-01-30T02:14:16;64.50;41.22;76.16;;
37279;Laerm;7458;49.002;8.472;2023-01-30T02:16:46;63.79;40.62;76.42;;
37279;Laerm;7458;49.002;8.472;2023-01-30T02:19:33;64.76;42.03;90.61;;
37279;Laerm;7458;49.002;8.472;2023-01-30T02:34:17;64.25;40.62;76.14;;
37279;Laerm;7458;49.002;8.472;2023-01-30T02:40:14;65.64;39.21;84.11;;
37279;Laerm;7458;49.002;8.472;2023-01-30T02:45:49;64.63;41.68;76.31;;
37279;Laerm;7458;49.002;8.472;2023-01-30T02:49:05;64.57;42.53;78.82;;
37279;Laerm;7458;49.002;8.472;2023-01-30T02:51:37;63.92;42.41;75.70;;
37279;Laerm;7458;49.002;8.472;2023-01-30T02:54:10;64.83;41.06;76.13;;
37279;Laerm;7458;49.002;8.472;2023-01-30T02:56:56;64.70;42.47;76.04;;
37279;Laerm;7458;49.002;8.472;2023-01-30T02:59:38;63.93;42.98;76.17;;
37279;Laerm;7458;49.002;8.472;2023-01-30T03:02:44;64.06;42.82;75.60;;
37279;Laerm;7458;49.002;8.472;2023-01-30T03:06:23;64.06;42.88;75.97;;
37279;Laerm;7458;49.002;8.472;2023-01-30T03:11:13;64.78;42.42;75.81;;
37279;Laerm;7458;49.002;8.472;2023-01-30T03:14:04;63.98;42.03;75.93;;
37279;Laerm;7458;49.002;8.472;2023-01-30T03:16:39;64.63;42.53;75.82;;
37279;Laerm;7458;49.002;8.472;2023-01-30T03:19:11;64.36;42.53;75.55;;
37279;Laerm;7458;49.002;8.472;2023-01-30T03:21:42;62.22;42.22;75.99;;
37279;Laerm;7458;49.002;8.472;2023-01-30T03:24:10;64.45;43.19;75.81;;
37279;Laerm;7458;49.002;8.472;2023-01-30T03:26:53;64.05;43.29;75.93;;
37279;Laerm;7458;49.002;8.472;2023-01-30T03:29:21;64.39;44.31;77.18;;
37279;Laerm;7458;49.002;8.472;2023-01-30T03:31:47;64.90;43.09;75.41;;
37279;Laerm;7458;49.002;8.472;2023-01-30T03:34:13;64.61;43.39;75.56;;
37279;Laerm;7458;49.002;8.472;2023-01-30T03:36:38;64.18;43.68;75.38;;
37279;Laerm;7458;49.002;8.472;2023-01-30T03:39:04;64.31;43.68;75.72;;
37279;Laerm;7458;49.002;8.472;2023-01-30T03:41:30;64.43;43.68;75.34;;
37279;Laerm;7458;49.002;8.472;2023-01-30T03:43:56;59.77;43.29;75.98;;
37279;Laerm;7458;49.002;8.472;2023-01-30T03:46:22;60.91;43.72;76.06;;
37279;Laerm;7458;49.002;8.472;2023-01-30T03:48:48;64.28;43.90;75.73;;
37279;Laerm;7458;49.002;8.472;2023-01-30T03:51:14;49.48;43.58;60.52;;
37279;Laerm;7458;49.002;8.472;2023-01-30T03:53:39;63.92;43.81;75.36;;
37279;Laerm;7458;49.002;8.472;2023-01-30T03:56:05;60.93;44.07;76.18;;
37279;Laerm;7458;49.002;8.472;2023-01-30T03:58:31;64.27;43.77;75.22;;
37279;Laerm;7458;49.002;8.472;2023-01-30T04:00:56;63.73;44.27;75.48;;
37279;Laerm;7458;49.002;8.472;2023-01-30T04:03:23;57.17;43.44;75.92;;
37279;Laerm;7458;49.002;8.472;2023-01-30T04:05:49;64.13;43.58;75.30;;
37279;Laerm;7458;49.002;8.472;2023-01-30T04:08:14;63.86;43.19;75.17;;
37279;Laerm;7458;49.002;8.472;2023-01-30T04:10:40;63.70;43.86;75.29;;
37279;Laerm;7458;49.002;8.472;2023-01-30T04:13:06;63.48;44.47;78.47;;
37279;Laerm;7458;49.002;8.472;2023-01-30T04:15:32;64.26;43.86;75.38;;
37279;Laerm;7458;49.002;8.472;2023-01-30T04:17:57;63.07;43.86;75.28;;
37279;Laerm;7458;49.002;8.472;2023-01-30T04:20:23;63.42;44.03;75.67;;
37279;Laerm;7458;49.002;8.472;2023-01-30T04:22:49;54.30;44.11;75.96;;
37279;Laerm;7458;49.002;8.472;2023-01-30T04:25:15;62.83;44.23;75.08;;
37279;Laerm;7458;49.002;8.472;2023-01-30T04:27:41;63.34;44.35;75.80;;
37279;Laerm;7458;49.002;8.472;2023-01-30T04:30:08;63.50;44.19;75.16;;
37279;Laerm;7458;49.002;8.472;2023-01-30T04:32:34;49.06;44.51;59.89;;
37279;Laerm;7458;49.002;8.472;2023-01-30T04:34:59;63.83;43.81;75.37;;
37279;Laerm;7458;49.002;8.472;2023-01-30T04:37:25;62.06;43.99;75.82;;
37279;Laerm;7458;49.002;8.472;2023-01-30T04:39:51;64.26;43.86;75.95;;
37279;Laerm;7458;49.002;8.472;2023-01-30T04:42:17;64.08;44.03;75.48;;
37279;Laerm;7458;49.002;8.472;2023-01-30T04:44:42;49.70;44.11;62.41;;
37279;Laerm;7458;49.002;8.472;2023-01-30T04:47:08;53.99;44.80;71.88;;
37279;Laerm;7458;49.002;8.472;2023-01-30T04:49:34;64.42;44.62;75.84;;
37279;Laerm;7458;49.002;8.472;2023-01-30T04:52:00;50.52;44.73;59.46;;
37279;Laerm;7458;49.002;8.472;2023-01-30T04:54:25;64.10;45.48;76.52;;
37279;Laerm;7458;49.002;8.472;2023-01-30T04:56:51;60.34;45.54;80.63;;
37279;Laerm;7458;49.002;8.472;2023-01-30T04:59:17;50.40;45.51;61.73;;
37279;Laerm;7458;49.002;8.472;2023-01-30T05:01:43;63.63;44.90;75.51;;
37279;Laerm;7458;49.002;8.472;2023-01-30T05:04:09;58.24;44.69;75.88;;
37279;Laerm;7458;49.002;8.472;2023-01-30T05:06:35;64.12;44.62;75.43;;
37279;Laerm;7458;49.002;8.472;2023-01-30T05:09:03;64.42;44.97;75.57;;
37279;Laerm;7458;49.002;8.472;2023-01-30T05:11:29;63.56;44.90;75.65;;
37279;Laerm;7458;49.002;8.472;2023-01-30T05:13:56;50.63;44.58;72.03;;
37279;Laerm;7458;49.002;8.472;2023-01-30T05:16:23;54.38;45.11;75.30;;
37279;Laerm;7458;49.002;8.472;2023-01-30T05:18:50;63.99;45.11;76.08;;
37279;Laerm;7458;49.002;8.472;2023-01-30T05:21:20;52.72;45.30;65.64;;
37279;Laerm;7458;49.002;8.472;2023-01-30T05:23:46;60.83;45.89;75.75;;
37279;Laerm;7458;49.002;8.472;2023-01-30T05:26:13;62.11;45.30;75.24;;
37279;Laerm;7458;49.002;8.472;2023-01-30T05:28:41;64.12;45.14;75.23;;
37279;Laerm;7458;49.002;8.472;2023-01-30T05:31:11;63.36;45.20;81.62;;
37279;Laerm;7458;49.002;8.472;2023-01-30T05:33:38;58.90;46.33;80.85;;
37279;Laerm;7458;49.002;8.472;2023-01-30T05:36:05;57.06;45.86;81.73;;
37279;Laerm;7458;49.002;8.472;2023-01-30T05:38:31;63.57;45.57;75.69;;
37279;Laerm;7458;49.002;8.472;2023-01-30T05:41:06;62.14;46.15;75.38;;
37279;Laerm;7458;49.002;8.472;2023-01-30T05:43:33;62.13;45.04;77.65;;
37279;Laerm;7458;49.002;8.472;2023-01-30T05:46:02;53.05;45.45;67.97;;
37279;Laerm;7458;49.002;8.472;2023-01-30T05:48:28;62.79;45.72;75.76;;
37279;Laerm;7458;49.002;8.472;2023-01-30T05:50:57;64.97;45.30;76.44;;
37279;Laerm;7458;49.002;8.472;2023-01-30T05:53:27;60.08;45.60;75.96;;
37279;Laerm;7458;49.002;8.472;2023-01-30T05:55:58;62.50;45.57;76.04;;
37279;Laerm;7458;49.002;8.472;2023-01-30T05:58:26;64.46;45.14;75.46;;
37279;Laerm;7458;49.002;8.472;2023-01-30T06:00:52;54.11;46.10;71.96;;
37279;Laerm;7458;49.002;8.472;2023-01-30T06:03:18;63.89;46.02;75.57;;
37279;Laerm;7458;49.002;8.472;2023-01-30T06:05:44;51.52;45.69;70.01;;
37279;Laerm;7458;49.002;8.472;2023-01-30T06:08:11;61.88;45.51;75.29;;
37279;Laerm;7458;49.002;8.472;2023-01-30T06:10:36;62.44;46.35;75.57;;
37279;Laerm;7458;49.002;8.472;2023-01-30T06:13:03;64.57;46.59;75.76;;
37279;Laerm;7458;49.002;8.472;2023-01-30T06:15:29;64.58;46.45;75.57;;
37279;Laerm;7458;49.002;8.472;2023-01-30T06:17:54;52.22;46.30;68.85;;
37279;Laerm;7458;49.002;8.472;2023-01-30T06:20:20;58.95;47.52;75.16;;
37279;Laerm;7458;49.002;8.472;2023-01-30T06:22:47;59.04;48.08;83.92;;
37279;Laerm;7458;49.002;8.472;2023-01-30T06:25:14;59.71;46.93;75.96;;
37279;Laerm;7458;49.002;8.472;2023-01-30T06:27:39;66.41;47.65;75.99;;
37279;Laerm;7458;49.002;8.472;2023-01-30T06:30:06;66.57;47.30;77.44;;
37279;Laerm;7458;49.002;8.472;2023-01-30T06:32:32;63.83;46.25;82.24;;
37279;Laerm;7458;49.002;8.472;2023-01-30T06:34:57;65.25;48.40;75.80;;
37279;Laerm;7458;49.002;8.472;2023-01-30T06:37:23;62.98;47.28;75.64;;
37279;Laerm;7458;49.002;8.472;2023-01-30T06:39:49;64.56;47.18;75.70;;
37279;Laerm;7458;49.002;8.472;2023-01-30T06:42:14;57.59;47.14;73.91;;
37279;Laerm;7458;49.002;8.472;2023-01-30T06:44:40;64.82;48.71;75.70;;
37279;Laerm;7458;49.002;8.472;2023-01-30T06:47:06;56.18;46.23;70.88;;
37279;Laerm;7458;49.002;8.472;2023-01-30T06:49:31;64.76;46.02;75.87;;
37279;Laerm;7458;49.002;8.472;2023-01-30T06:51:57;57.78;46.43;83.56;;
37279;Laerm;7458;49.002;8.472;2023-01-30T06:54:23;62.57;46.87;75.13;;
37279;Laerm;7458;49.002;8.472;2023-01-30T06:56:48;60.21;48.08;76.42;;
37279;Laerm;7458;49.002;8.472;2023-01-30T06:59:14;63.81;47.24;76.11;;
37279;Laerm;7458;49.002;8.472;2023-01-30T07:01:40;55.84;46.18;73.58;;
37279;Laerm;7458;49.002;8.472;2023-01-30T07:04:06;64.47;45.57;76.45;;
37279;Laerm;7458;49.002;8.472;2023-01-30T07:06:31;63.94;46.50;79.20;;
37279;Laerm;7458;49.002;8.472;2023-01-30T07:08:57;51.50;46.18;68.09;;
37279;Laerm;7458;49.002;8.472;2023-01-30T07:11:24;64.55;45.72;80.18;;
37279;Laerm;7458;49.002;8.472;2023-01-30T07:13:50;63.75;46.57;75.20;;
37279;Laerm;7458;49.002;8.472;2023-01-30T07:16:16;51.68;46.18;58.28;;
37279;Laerm;7458;49.002;8.472;2023-01-30T07:18:42;63.60;46.35;81.91;;
37279;Laerm;7458;49.002;8.472;2023-01-30T07:21:08;62.13;46.87;75.19;;
37279;Laerm;7458;49.002;8.472;2023-01-30T07:23:34;56.35;47.18;76.01;;
37279;Laerm;7458;49.002;8.472;2023-01-30T07:26:03;64.00;46.82;86.83;;
37279;Laerm;7458;49.002;8.472;2023-01-30T07:28:29;54.00;46.13;70.45;;
37279;Laerm;7458;49.002;8.472;2023-01-30T07:30:59;55.38;46.40;79.18;;
37279;Laerm;7458;49.002;8.472;2023-01-30T07:33:24;57.23;46.93;78.03;;
37279;Laerm;7458;49.002;8.472;2023-01-30T07:35:50;54.53;46.25;68.58;;
37279;Laerm;7458;49.002;8.472;2023-01-30T07:38:16;55.01;47.06;69.33;;
37279;Laerm;7458;49.002;8.472;2023-01-30T07:40:42;61.69;46.69;77.68;;
37279;Laerm;7458;49.002;8.472;2023-01-30T07:43:11;53.46;46.38;68.35;;
37279;Laerm;7458;49.002;8.472;2023-01-30T07:45:39;57.71;46.33;76.18;;
37279;Laerm;7458;49.002;8.472;2023-01-30T07:48:08;64.21;47.40;75.46;;
37279;Laerm;7458;49.002;8.472;2023-01-30T07:50:35;58.49;46.80;80.82;;
37279;Laerm;7458;49.002;8.472;2023-01-30T07:53:06;64.37;47.76;75.93;;
37279;Laerm;7458;49.002;8.472;2023-01-30T07:55:33;62.75;46.62;77.47;;
37279;Laerm;7458;49.002;8.472;2023-01-30T07:57:59;58.94;46.71;81.92;;
37279;Laerm;7458;49.002;8.472;2023-01-30T08:00:25;60.56;46.48;75.02;;
37279;Laerm;7458;49.002;8.472;2023-01-30T08:02:51;62.87;47.61;95.18;;
37279;Laerm;7458;49.002;8.472;2023-01-30T08:05:17;57.28;46.87;75.48;;
37279;Laerm;7458;49.002;8.472;2023-01-30T08:07:43;56.67;46.23;82.44;;
37279;Laerm;7458;49.002;8.472;2023-01-30T08:10:12;52.13;45.83;70.51;;
37279;Laerm;7458;49.002;8.472;2023-01-30T08:12:39;54.59;46.76;72.91;;
37279;Laerm;7458;49.002;8.472;2023-01-30T08:15:07;63.92;46.45;75.72;;
37279;Laerm;7458;49.002;8.472;2023-01-30T08:17:33;55.33;45.72;69.79;;
37279;Laerm;7458;49.002;8.472;2023-01-30T08:19:59;58.25;46.84;72.42;;
37279;Laerm;7458;49.002;8.472;2023-01-30T08:22:25;54.24;46.10;71.68;;
37279;Laerm;7458;49.002;8.472;2023-01-30T08:24:51;55.15;45.66;69.32;;
37279;Laerm;7458;49.002;8.472;2023-01-30T08:27:16;55.59;46.76;71.23;;
37279;Laerm;7458;49.002;8.472;2023-01-30T08:29:43;63.93;45.94;75.46;;
37279;Laerm;7458;49.002;8.472;2023-01-30T08:32:09;59.40;46.52;83.75;;
37279;Laerm;7458;49.002;8.472;2023-01-30T08:34:35;63.74;46.18;79.27;;
37279;Laerm;7458;49.002;8.472;2023-01-30T08:37:02;63.38;45.99;75.29;;
37279;Laerm;7458;49.002;8.472;2023-01-30T08:39:27;55.00;47.14;69.43;;
37279;Laerm;7458;49.002;8.472;2023-01-30T08:41:53;55.01;47.30;74.11;;
37279;Laerm;7458;49.002;8.472;2023-01-30T08:44:19;64.01;46.13;89.06;;
37279;Laerm;7458;49.002;8.472;2023-01-30T08:46:45;57.83;47.10;84.40;;
37279;Laerm;7458;49.002;8.472;2023-01-30T08:49:11;63.43;46.57;90.49;;
37279;Laerm;7458;49.002;8.472;2023-01-30T08:51:37;54.90;45.99;71.19;;
37279;Laerm;7458;49.002;8.472;2023-01-30T08:54:04;52.72;45.99;77.42;;
37279;Laerm;7458;49.002;8.472;2023-01-30T08:56:32;55.66;46.28;73.31;;
37279;Laerm;7458;49.002;8.472;2023-01-30T08:58:58;63.28;46.05;85.52;;
37279;Laerm;7458;49.002;8.472;2023-01-30T09:01:24;64.53;46.55;75.82;;
37279;Laerm;7458;49.002;8.472;2023-01-30T09:03:50;63.31;46.66;76.10;;
37279;Laerm;7458;49.002;8.472;2023-01-30T09:06:15;59.87;46.52;85.62;;
37279;Laerm;7458;49.002;8.472;2023-01-30T09:08:41;55.55;47.30;73.35;;
37279;Laerm;7458;49.002;8.472;2023-01-30T09:11:09;57.91;47.65;85.46;;
37279;Laerm;7458;49.002;8.472;2023-01-30T09:13:35;62.34;46.80;75.38;;
37279;Laerm;7458;49.002;8.472;2023-01-30T09:16:05;56.33;46.20;77.41;;
37279;Laerm;7458;49.002;8.472;2023-01-30T09:18:31;62.86;47.36;76.65;;
37279;Laerm;7458;49.002;8.472;2023-01-30T09:21:04;55.62;46.25;74.55;;
37279;Laerm;7458;49.002;8.472;2023-01-30T09:23:30;70.76;47.06;97.77;;
37279;Laerm;7458;49.002;8.472;2023-01-30T09:25:59;55.93;47.67;77.39;;
37279;Laerm;7458;49.002;8.472;2023-01-30T09:28:25;64.31;46.28;90.08;;
37279;Laerm;7458;49.002;8.472;2023-01-30T09:30:51;53.00;46.52;67.35;;
37279;Laerm;7458;49.002;8.472;2023-01-30T09:33:17;60.74;46.10;83.63;;
37279;Laerm;7458;49.002;8.472;2023-01-30T09:35:48;56.20;47.18;69.47;;
37279;Laerm;7458;49.002;8.472;2023-01-30T09:38:15;56.56;47.84;70.62;;
37279;Laerm;7458;49.002;8.472;2023-01-30T09:41:34;54.12;46.05;68.88;;
37279;Laerm;7458;49.002;8.472;2023-01-30T09:47:12;52.65;46.28;65.71;;
37279;Laerm;7458;49.002;8.472;2023-01-30T09:52:51;61.81;45.93;88.25;;
37279;Laerm;7458;49.002;8.472;2023-01-30T09:55:25;52.54;46.23;74.03;;
37279;Laerm;7458;49.002;8.472;2023-01-30T09:57:58;57.76;47.00;76.32;;
37279;Laerm;7458;49.002;8.472;2023-01-30T10:00:34;55.70;46.93;69.82;;
37279;Laerm;7458;49.002;8.472;2023-01-30T10:05:53;58.39;47.08;82.06;;
37279;Laerm;7458;49.002;8.472;2023-01-30T10:12:01;57.69;47.34;73.94;;
37279;Laerm;7458;49.002;8.472;2023-01-30T10:18:06;53.37;45.63;68.33;;
37279;Laerm;7458;49.002;8.472;2023-01-30T10:21:28;56.87;47.73;78.00;;
37279;Laerm;7458;49.002;8.472;2023-01-30T10:26:32;54.34;46.38;69.00;;
37279;Laerm;7458;49.002;8.472;2023-01-30T10:31:47;55.98;46.93;73.62;;
37279;Laerm;7458;49.002;8.472;2023-01-30T10:34:29;64.12;47.54;84.40;;
37279;Laerm;7458;49.002;8.472;2023-01-30T10:37:40;54.67;47.26;68.60;;
37279;Laerm;7458;49.002;8.472;2023-01-30T10:45:21;56.11;46.33;72.27;;
37279;Laerm;7458;49.002;8.472;2023-01-30T10:48:58;58.23;46.45;77.90;;
37279;Laerm;7458;49.002;8.472;2023-01-30T10:51:59;56.55;47.16;77.35;;
37279;Laerm;7458;49.002;8.472;2023-01-30T10:55:02;56.16;46.43;77.41;;
37279;Laerm;7458;49.002;8.472;2023-01-30T11:00:37;54.75;47.50;69.25;;
37279;Laerm;7458;49.002;8.472;2023-01-30T11:03:21;55.36;46.87;69.52;;
37279;Laerm;7458;49.002;8.472;2023-01-30T11:06:18;54.08;47.61;71.64;;
37279;Laerm;7458;49.002;8.472;2023-01-30T11:08:48;59.00;47.55;77.66;;
37279;Laerm;7458;49.002;8.472;2023-01-30T11:11:48;54.34;46.95;68.54;;
37279;Laerm;7458;49.002;8.472;2023-01-30T11:14:14;59.09;46.48;91.38;;
37279;Laerm;7458;49.002;8.472;2023-01-30T11:16:53;62.33;47.24;75.02;;
37279;Laerm;7458;49.002;8.472;2023-01-30T11:19:33;57.76;47.08;74.96;;
37279;Laerm;7458;49.002;8.472;2023-01-30T11:22:02;55.68;46.95;70.99;;
37279;Laerm;7458;49.002;8.472;2023-01-30T11:24:37;54.83;47.50;69.58;;
37279;Laerm;7458;49.002;8.472;2023-01-30T11:27:18;57.32;48.69;81.53;;
37279;Laerm;7458;49.002;8.472;2023-01-30T11:29:46;56.99;47.28;78.13;;
37279;Laerm;7458;49.002;8.472;2023-01-30T11:32:26;52.08;46.62;70.04;;
37279;Laerm;7458;49.002;8.472;2023-01-30T11:35:25;52.59;46.52;72.13;;
37279;Laerm;7458;49.002;8.472;2023-01-30T11:37:52;55.17;46.84;70.67;;
37279;Laerm;7458;49.002;8.472;2023-01-30T11:40:21;53.04;47.30;75.84;;
37279;Laerm;7458;49.002;8.472;2023-01-30T11:42:58;55.67;48.52;78.00;;
37279;Laerm;7458;49.002;8.472;2023-01-30T11:45:26;58.13;48.12;86.42;;
37279;Laerm;7458;49.002;8.472;2023-01-30T11:48:03;53.33;47.02;76.04;;
37279;Laerm;7458;49.002;8.472;2023-01-30T11:50:46;54.57;47.06;75.41;;
37279;Laerm;7458;49.002;8.472;2023-01-30T11:53:42;62.01;47.68;80.50;;
37279;Laerm;7458;49.002;8.472;2023-01-30T11:59:02;55.57;47.44;76.14;;
37279;Laerm;7458;49.002;8.472;2023-01-30T12:01:33;56.06;47.00;69.66;;
37279;Laerm;7458;49.002;8.472;2023-01-30T12:04:04;53.78;47.38;75.28;;
37279;Laerm;7458;49.002;8.472;2023-01-30T12:06:37;53.97;47.50;71.73;;
37279;Laerm;7458;49.002;8.472;2023-01-30T12:09:04;52.87;47.08;65.99;;
37279;Laerm;7458;49.002;8.472;2023-01-30T12:17:20;56.73;47.08;70.91;;
37279;Laerm;7458;49.002;8.472;2023-01-30T12:22:34;56.53;47.83;70.53;;
37279;Laerm;7458;49.002;8.472;2023-01-30T12:25:15;57.52;47.83;73.66;;
37279;Laerm;7458;49.002;8.472;2023-01-30T12:28:13;55.62;47.02;72.70;;
37279;Laerm;7458;49.002;8.472;2023-01-30T12:30:52;56.57;47.22;68.64;;
37279;Laerm;7458;49.002;8.472;2023-01-30T12:33:22;57.01;47.81;72.10;;
37279;Laerm;7458;49.002;8.472;2023-01-30T12:47:48;54.74;48.26;68.21;;
37279;Laerm;7458;49.002;8.472;2023-01-30T12:50:46;62.03;49.00;76.85;;
37279;Laerm;7458;49.002;8.472;2023-01-30T12:56:54;59.19;53.93;72.07;;
37279;Laerm;7458;49.002;8.472;2023-01-30T13:00:02;61.15;47.61;79.17;;
37279;Laerm;7458;49.002;8.472;2023-01-30T13:03:12;59.76;47.86;82.57;;
37279;Laerm;7458;49.002;8.472;2023-01-30T13:06:05;56.72;47.34;72.07;;
37279;Laerm;7458;49.002;8.472;2023-01-30T13:14:19;59.57;46.76;76.12;;
37279;Laerm;7458;49.002;8.472;2023-01-30T13:23:31;55.25;46.25;71.35;;
37279;Laerm;7458;49.002;8.472;2023-01-30T13:26:27;56.40;47.34;79.58;;
37279;Laerm;7458;49.002;8.472;2023-01-30T13:29:02;62.79;47.65;74.16;;
37279;Laerm;7458;49.002;8.472;2023-01-30T13:31:41;61.49;47.22;73.87;;
37279;Laerm;7458;49.002;8.472;2023-01-30T13:34:27;58.05;47.65;74.37;;
37279;Laerm;7458;49.002;8.472;2023-01-30T13:37:22;57.24;47.55;74.89;;
37279;Laerm;7458;49.002;8.472;2023-01-30T13:42:36;57.72;47.81;74.69;;
37279;Laerm;7458;49.002;8.472;2023-01-30T13:45:21;56.75;46.40;71.77;;
37279;Laerm;7458;49.002;8.472;2023-01-30T13:57:31;54.11;46.71;70.20;;
37279;Laerm;7458;49.002;8.472;2023-01-30T14:07:41;57.21;47.12;71.42;;
37279;Laerm;7458;49.002;8.472;2023-01-30T14:10:18;60.58;47.50;74.17;;
37279;Laerm;7458;49.002;8.472;2023-01-30T14:12:51;57.51;46.52;73.97;;
37279;Laerm;7458;49.002;8.472;2023-01-30T14:15:24;54.35;47.04;69.11;;
37279;Laerm;7458;49.002;8.472;2023-01-30T14:18:06;55.08;46.43;70.05;;
37279;Laerm;7458;49.002;8.472;2023-01-30T14:20:44;51.91;46.97;61.30;;
37279;Laerm;7458;49.002;8.472;2023-01-30T14:23:33;55.65;47.06;68.85;;
37279;Laerm;7458;49.002;8.472;2023-01-30T14:26:00;55.99;47.06;70.66;;
37279;Laerm;7458;49.002;8.472;2023-01-30T14:38:33;54.03;46.33;70.10;;
37279;Laerm;7458;49.002;8.472;2023-01-30T14:49:04;55.21;46.69;70.69;;
37279;Laerm;7458;49.002;8.472;2023-01-30T14:57:02;55.01;46.45;71.18;;
37279;Laerm;7458;49.002;8.472;2023-01-30T15:05:03;53.83;46.69;75.65;;
37279;Laerm;7458;49.002;8.472;2023-01-30T15:08:00;57.60;46.25;74.51;;
37279;Laerm;7458;49.002;8.472;2023-01-30T15:11:07;57.83;46.38;75.69;;
37279;Laerm;7458;49.002;8.472;2023-01-30T15:17:06;71.22;48.00;92.20;;
37279;Laerm;7458;49.002;8.472;2023-01-30T15:31:04;56.31;46.64;69.93;;
37279;Laerm;7458;49.002;8.472;2023-01-30T15:33:43;57.23;46.91;72.02;;
37279;Laerm;7458;49.002;8.472;2023-01-30T15:36:31;56.48;46.84;71.76;;
37279;Laerm;7458;49.002;8.472;2023-01-30T15:39:05;59.93;48.87;76.22;;
37279;Laerm;7458;49.002;8.472;2023-01-30T15:41:37;57.06;48.07;75.65;;
37279;Laerm;7458;49.002;8.472;2023-01-30T15:47:17;54.65;47.08;68.45;;
37279;Laerm;7458;49.002;8.472;2023-01-30T15:49:58;56.82;47.07;71.98;;
37279;Laerm;7458;49.002;8.472;2023-01-30T15:52:38;62.32;47.38;86.83;;
37279;Laerm;7458;49.002;8.472;2023-01-30T15:55:28;55.88;47.10;70.32;;
37279;Laerm;7458;49.002;8.472;2023-01-30T15:58:03;56.86;47.63;81.14;;
37279;Laerm;7458;49.002;8.472;2023-01-30T16:00:45;56.24;47.38;71.75;;
37279;Laerm;7458;49.002;8.472;2023-01-30T16:03:20;53.79;46.52;71.73;;
37279;Laerm;7458;49.002;8.472;2023-01-30T16:05:52;54.36;47.57;66.71;;
37279;Laerm;7458;49.002;8.472;2023-01-30T16:08:27;53.89;46.55;67.09;;
37279;Laerm;7458;49.002;8.472;2023-01-30T16:10:53;51.83;46.80;62.90;;
37279;Laerm;7458;49.002;8.472;2023-01-30T16:13:20;56.55;47.68;75.53;;
37279;Laerm;7458;49.002;8.472;2023-01-30T16:18:45;58.60;48.15;76.85;;
37279;Laerm;7458;49.002;8.472;2023-01-30T16:21:21;57.03;48.05;74.61;;
37279;Laerm;7458;49.002;8.472;2023-01-30T16:24:12;56.34;47.34;71.26;;
37279;Laerm;7458;49.002;8.472;2023-01-30T16:26:47;56.72;48.56;77.20;;
37279;Laerm;7458;49.002;8.472;2023-01-30T16:29:19;56.62;47.36;73.83;;
37279;Laerm;7458;49.002;8.472;2023-01-30T16:31:49;55.18;46.57;71.02;;
37279;Laerm;7458;49.002;8.472;2023-01-30T16:34:30;52.97;46.10;70.83;;
37279;Laerm;7458;49.002;8.472;2023-01-30T16:37:25;53.52;46.69;66.06;;
37279;Laerm;7458;49.002;8.472;2023-01-30T16:40:13;55.22;47.18;69.14;;
37279;Laerm;7458;49.002;8.472;2023-01-30T16:42:39;63.87;48.43;85.13;;
37279;Laerm;7458;49.002;8.472;2023-01-30T16:47:38;63.89;47.28;88.75;;
37279;Laerm;7458;49.002;8.472;2023-01-30T16:50:21;55.14;47.87;70.61;;
37279;Laerm;7458;49.002;8.472;2023-01-30T16:52:51;58.80;47.46;81.18;;
37279;Laerm;7458;49.002;8.472;2023-01-30T16:55:22;56.38;47.48;71.43;;
37279;Laerm;7458;49.002;8.472;2023-01-30T16:57:52;59.03;46.57;74.42;;
37279;Laerm;7458;49.002;8.472;2023-01-30T17:00:22;54.73;46.50;67.79;;
37279;Laerm;7458;49.002;8.472;2023-01-30T17:02:54;58.49;46.59;76.61;;
37279;Laerm;7458;49.002;8.472;2023-01-30T17:05:28;56.87;47.28;70.49;;
37279;Laerm;7458;49.002;8.472;2023-01-30T17:07:56;59.36;48.34;72.02;;